sensor_id;sensor_type;location;lat;lon;timestamp;temperature;humidity
34572;DHT22;20808;48.974;8.452;2022-09-30T00:02:21;8.10;99.90
34572;DHT22;20808;48.974;8.452;2022-09-30T00:04:48;8.10;99.90
34572;DHT22;20808;48.974;8.452;2022-09-30T00:07:15;8.10;99.90
34572;DHT22;20808;48.974;8.452;2022-09-30T00:09:42;8.10;99.90
34572;DHT22;20808;48.974;8.452;2022-09-30T00:12:09;8.10;99.90
34572;DHT22;20808;48.974;8.452;2022-09-30T00:14:36;8.10;99.90
34572;DHT22;20808;48.974;8.452;2022-09-30T00:17:03;8.10;99.90
34572;DHT22;20808;48.974;8.452;2022-09-30T00:19:31;8.10;99.90
34572;DHT22;20808;48.974;8.452;2022-09-30T00:21:58;8.20;99.90
34572;DHT22;20808;48.974;8.452;2022-09-30T00:24:25;8.20;99.90
34572;DHT22;20808;48.974;8.452;2022-09-30T00:26:52;8.20;99.90
34572;DHT22;20808;48.974;8.452;2022-09-30T00:29:18;8.10;99.90
34572;DHT22;20808;48.974;8.452;2022-09-30T00:31:45;8.10;99.90
34572;DHT22;20808;48.974;8.452;2022-09-30T00:34:12;8.10;99.90
34572;DHT22;20808;48.974;8.452;2022-09-30T00:36:42;8.10;99.90
34572;DHT22;20808;48.974;8.452;2022-09-30T00:39:12;8.10;99.90
34572;DHT22;20808;48.974;8.452;2022-09-30T00:41:41;8.10;99.90
34572;DHT22;20808;48.974;8.452;2022-09-30T00:47:32;8.00;99.90
34572;DHT22;20808;48.974;8.452;2022-09-30T00:50:04;8.00;99.90
34572;DHT22;20808;48.974;8.452;2022-09-30T00:52:33;7.90;99.90
34572;DHT22;20808;48.974;8.452;2022-09-30T00:55:04;7.90;99.90
34572;DHT22;20808;48.974;8.452;2022-09-30T00:57:34;7.80;99.90
34572;DHT22;20808;48.974;8.452;2022-09-30T01:00:02;7.80;99.90
34572;DHT22;20808;48.974;8.452;2022-09-30T01:02:29;7.70;99.90
34572;DHT22;20808;48.974;8.452;2022-09-30T01:04:56;7.70;99.90
34572;DHT22;20808;48.974;8.452;2022-09-30T01:07:24;7.60;99.90
34572;DHT22;20808;48.974;8.452;2022-09-30T01:09:52;7.60;99.90
34572;DHT22;20808;48.974;8.452;2022-09-30T01:12:22;7.60;99.90
34572;DHT22;20808;48.974;8.452;2022-09-30T01:14:52;7.60;99.90
34572;DHT22;20808;48.974;8.452;2022-09-30T01:17:30;7.70;99.90
34572;DHT22;20808;48.974;8.452;2022-09-30T01:20:25;7.70;99.90
34572;DHT22;20808;48.974;8.452;2022-09-30T01:23:11;7.70;99.90
34572;DHT22;20808;48.974;8.452;2022-09-30T01:26:03;7.80;99.90
34572;DHT22;20808;48.974;8.452;2022-09-30T01:29:01;7.80;99.90
34572;DHT22;20808;48.974;8.452;2022-09-30T01:31:43;7.80;99.90
34572;DHT22;20808;48.974;8.452;2022-09-30T01:34:23;7.80;99.90
34572;DHT22;20808;48.974;8.452;2022-09-30T01:37:06;7.60;99.90
34572;DHT22;20808;48.974;8.452;2022-09-30T01:39:40;7.40;99.90
34572;DHT22;20808;48.974;8.452;2022-09-30T01:42:14;7.20;99.90
34572;DHT22;20808;48.974;8.452;2022-09-30T01:44:48;7.20;99.90
34572;DHT22;20808;48.974;8.452;2022-09-30T01:47:23;7.30;99.90
34572;DHT22;20808;48.974;8.452;2022-09-30T01:49:54;7.30;99.90
34572;DHT22;20808;48.974;8.452;2022-09-30T01:52:25;7.30;99.90
34572;DHT22;20808;48.974;8.452;2022-09-30T01:54:58;7.40;99.90
34572;DHT22;20808;48.974;8.452;2022-09-30T01:57:30;7.50;99.90
34572;DHT22;20808;48.974;8.452;2022-09-30T02:00:03;7.60;99.90
34572;DHT22;20808;48.974;8.452;2022-09-30T02:02:35;7.70;99.90
34572;DHT22;20808;48.974;8.452;2022-09-30T02:05:09;7.70;99.90
34572;DHT22;20808;48.974;8.452;2022-09-30T02:07:40;7.80;99.90
34572;DHT22;20808;48.974;8.452;2022-09-30T02:10:14;7.90;99.90
34572;DHT22;20808;48.974;8.452;2022-09-30T02:12:46;8.10;99.90
34572;DHT22;20808;48.974;8.452;2022-09-30T02:15:18;8.10;99.90
34572;DHT22;20808;48.974;8.452;2022-09-30T02:17:51;8.10;99.90
34572;DHT22;20808;48.974;8.452;2022-09-30T02:20:21;8.10;99.90
34572;DHT22;20808;48.974;8.452;2022-09-30T02:22:53;8.10;99.90
34572;DHT22;20808;48.974;8.452;2022-09-30T02:25:31;8.10;99.90
34572;DHT22;20808;48.974;8.452;2022-09-30T02:28:01;8.00;99.90
34572;DHT22;20808;48.974;8.452;2022-09-30T02:30:32;7.90;99.90
34572;DHT22;20808;48.974;8.452;2022-09-30T02:33:03;7.80;99.90
34572;DHT22;20808;48.974;8.452;2022-09-30T02:35:35;7.80;99.90
34572;DHT22;20808;48.974;8.452;2022-09-30T02:38:07;7.80;99.90
34572;DHT22;20808;48.974;8.452;2022-09-30T02:40:38;7.70;99.90
34572;DHT22;20808;48.974;8.452;2022-09-30T02:43:06;7.70;99.90
34572;DHT22;20808;48.974;8.452;2022-09-30T02:45:42;7.70;99.90
34572;DHT22;20808;48.974;8.452;2022-09-30T02:48:22;7.70;99.90
34572;DHT22;20808;48.974;8.452;2022-09-30T02:50:56;7.80;99.90
34572;DHT22;20808;48.974;8.452;2022-09-30T02:53:29;7.90;99.90
34572;DHT22;20808;48.974;8.452;2022-09-30T02:56:11;7.90;99.90
34572;DHT22;20808;48.974;8.452;2022-09-30T02:58:41;8.00;99.90
34572;DHT22;20808;48.974;8.452;2022-09-30T03:01:11;8.10;99.90
34572;DHT22;20808;48.974;8.452;2022-09-30T03:03:42;8.20;99.90
34572;DHT22;20808;48.974;8.452;2022-09-30T03:06:11;8.30;99.90
34572;DHT22;20808;48.974;8.452;2022-09-30T03:08:38;8.40;99.90
34572;DHT22;20808;48.974;8.452;2022-09-30T03:11:06;8.50;99.90
34572;DHT22;20808;48.974;8.452;2022-09-30T03:13:51;8.50;99.90
34572;DHT22;20808;48.974;8.452;2022-09-30T03:16:32;8.50;99.90
34572;DHT22;20808;48.974;8.452;2022-09-30T03:19:25;8.50;99.90
34572;DHT22;20808;48.974;8.452;2022-09-30T03:22:10;8.50;99.90
34572;DHT22;20808;48.974;8.452;2022-09-30T03:24:51;8.50;99.90
34572;DHT22;20808;48.974;8.452;2022-09-30T03:27:26;8.60;99.90
34572;DHT22;20808;48.974;8.452;2022-09-30T03:30:00;8.60;99.90
34572;DHT22;20808;48.974;8.452;2022-09-30T03:32:40;8.60;99.90
34572;DHT22;20808;48.974;8.452;2022-09-30T03:35:17;8.70;99.90
34572;DHT22;20808;48.974;8.452;2022-09-30T03:37:54;8.70;99.90
34572;DHT22;20808;48.974;8.452;2022-09-30T03:40:28;8.70;99.90
34572;DHT22;20808;48.974;8.452;2022-09-30T03:42:59;8.60;99.90
34572;DHT22;20808;48.974;8.452;2022-09-30T03:45:32;8.60;99.90
34572;DHT22;20808;48.974;8.452;2022-09-30T03:48:02;8.70;99.90
34572;DHT22;20808;48.974;8.452;2022-09-30T03:50:32;8.70;99.90
34572;DHT22;20808;48.974;8.452;2022-09-30T03:53:00;8.70;99.90
34572;DHT22;20808;48.974;8.452;2022-09-30T03:55:29;8.80;99.90
34572;DHT22;20808;48.974;8.452;2022-09-30T03:57:58;8.90;99.90
34572;DHT22;20808;48.974;8.452;2022-09-30T04:00:25;8.80;99.90
34572;DHT22;20808;48.974;8.452;2022-09-30T04:02:51;8.80;99.90
34572;DHT22;20808;48.974;8.452;2022-09-30T04:05:18;8.80;99.90
34572;DHT22;20808;48.974;8.452;2022-09-30T04:07:46;8.80;99.90
34572;DHT22;20808;48.974;8.452;2022-09-30T04:10:13;8.80;99.90
34572;DHT22;20808;48.974;8.452;2022-09-30T04:12:40;8.80;99.90
34572;DHT22;20808;48.974;8.452;2022-09-30T04:15:08;8.90;99.90
34572;DHT22;20808;48.974;8.452;2022-09-30T04:17:35;8.80;99.90
34572;DHT22;20808;48.974;8.452;2022-09-30T04:20:02;8.90;99.90
34572;DHT22;20808;48.974;8.452;2022-09-30T04:22:29;8.90;99.90
34572;DHT22;20808;48.974;8.452;2022-09-30T04:24:57;8.90;99.90
34572;DHT22;20808;48.974;8.452;2022-09-30T04:27:23;8.80;99.90
34572;DHT22;20808;48.974;8.452;2022-09-30T04:29:50;8.80;99.90
34572;DHT22;20808;48.974;8.452;2022-09-30T04:32:17;8.90;99.90
34572;DHT22;20808;48.974;8.452;2022-09-30T04:34:44;9.00;99.90
34572;DHT22;20808;48.974;8.452;2022-09-30T04:37:10;9.00;99.90
34572;DHT22;20808;48.974;8.452;2022-09-30T04:39:38;9.00;99.90
34572;DHT22;20808;48.974;8.452;2022-09-30T04:42:06;8.90;99.90
34572;DHT22;20808;48.974;8.452;2022-09-30T04:44:33;8.80;99.90
34572;DHT22;20808;48.974;8.452;2022-09-30T04:47:00;8.90;99.90
34572;DHT22;20808;48.974;8.452;2022-09-30T04:49:27;9.00;99.90
34572;DHT22;20808;48.974;8.452;2022-09-30T04:51:54;9.00;99.90
34572;DHT22;20808;48.974;8.452;2022-09-30T04:54:21;9.00;99.90
34572;DHT22;20808;48.974;8.452;2022-09-30T04:56:48;8.90;99.90
34572;DHT22;20808;48.974;8.452;2022-09-30T04:59:16;8.90;99.90
34572;DHT22;20808;48.974;8.452;2022-09-30T05:01:43;8.80;99.90
34572;DHT22;20808;48.974;8.452;2022-09-30T05:04:10;8.80;99.90
34572;DHT22;20808;48.974;8.452;2022-09-30T05:06:37;8.80;99.90
34572;DHT22;20808;48.974;8.452;2022-09-30T05:09:05;8.80;99.90
34572;DHT22;20808;48.974;8.452;2022-09-30T05:11:32;8.80;99.90
34572;DHT22;20808;48.974;8.452;2022-09-30T05:13:59;8.80;99.90
34572;DHT22;20808;48.974;8.452;2022-09-30T05:16:27;8.80;99.90
34572;DHT22;20808;48.974;8.452;2022-09-30T05:18:54;8.70;99.90
34572;DHT22;20808;48.974;8.452;2022-09-30T05:21:21;8.60;99.90
34572;DHT22;20808;48.974;8.452;2022-09-30T05:23:48;8.70;99.90
34572;DHT22;20808;48.974;8.452;2022-09-30T05:26:14;8.70;99.90
34572;DHT22;20808;48.974;8.452;2022-09-30T05:28:41;8.50;99.90
34572;DHT22;20808;48.974;8.452;2022-09-30T05:31:09;8.30;99.90
34572;DHT22;20808;48.974;8.452;2022-09-30T05:33:38;8.20;99.90
34572;DHT22;20808;48.974;8.452;2022-09-30T05:36:08;8.10;99.90
34572;DHT22;20808;48.974;8.452;2022-09-30T05:38:35;8.00;99.90
34572;DHT22;20808;48.974;8.452;2022-09-30T05:41:05;7.90;99.90
34572;DHT22;20808;48.974;8.452;2022-09-30T05:43:33;7.90;99.90
34572;DHT22;20808;48.974;8.452;2022-09-30T05:46:00;7.90;99.90
34572;DHT22;20808;48.974;8.452;2022-09-30T05:48:27;7.70;99.90
34572;DHT22;20808;48.974;8.452;2022-09-30T05:50:56;7.60;99.90
34572;DHT22;20808;48.974;8.452;2022-09-30T05:53:25;7.60;99.90
34572;DHT22;20808;48.974;8.452;2022-09-30T05:55:52;7.50;99.90
34572;DHT22;20808;48.974;8.452;2022-09-30T05:58:19;7.50;99.90
34572;DHT22;20808;48.974;8.452;2022-09-30T06:00:48;7.40;99.90
34572;DHT22;20808;48.974;8.452;2022-09-30T06:03:16;7.40;99.90
34572;DHT22;20808;48.974;8.452;2022-09-30T06:05:43;7.30;99.90
34572;DHT22;20808;48.974;8.452;2022-09-30T06:08:14;7.40;99.90
34572;DHT22;20808;48.974;8.452;2022-09-30T06:10:42;7.50;99.90
34572;DHT22;20808;48.974;8.452;2022-09-30T06:13:09;7.70;99.90
34572;DHT22;20808;48.974;8.452;2022-09-30T06:15:36;7.90;99.90
34572;DHT22;20808;48.974;8.452;2022-09-30T06:18:04;8.20;99.90
34572;DHT22;20808;48.974;8.452;2022-09-30T06:20:31;8.40;99.90
34572;DHT22;20808;48.974;8.452;2022-09-30T06:22:59;8.60;99.90
34572;DHT22;20808;48.974;8.452;2022-09-30T06:25:28;8.80;99.90
34572;DHT22;20808;48.974;8.452;2022-09-30T06:27:55;8.90;99.90
34572;DHT22;20808;48.974;8.452;2022-09-30T06:30:22;9.10;99.90
34572;DHT22;20808;48.974;8.452;2022-09-30T06:32:49;9.20;99.90
34572;DHT22;20808;48.974;8.452;2022-09-30T06:35:16;9.40;99.90
34572;DHT22;20808;48.974;8.452;2022-09-30T06:37:44;9.50;99.90
34572;DHT22;20808;48.974;8.452;2022-09-30T06:40:11;9.60;99.90
34572;DHT22;20808;48.974;8.452;2022-09-30T06:42:39;9.70;99.90
34572;DHT22;20808;48.974;8.452;2022-09-30T06:45:08;9.70;99.90
34572;DHT22;20808;48.974;8.452;2022-09-30T06:47:35;9.70;99.90
34572;DHT22;20808;48.974;8.452;2022-09-30T06:50:03;9.70;99.90
34572;DHT22;20808;48.974;8.452;2022-09-30T06:52:30;9.80;99.90
34572;DHT22;20808;48.974;8.452;2022-09-30T06:54:57;10.00;99.90
34572;DHT22;20808;48.974;8.452;2022-09-30T06:57:24;10.00;99.90
34572;DHT22;20808;48.974;8.452;2022-09-30T06:59:53;10.10;99.90
34572;DHT22;20808;48.974;8.452;2022-09-30T07:02:20;10.20;99.90
34572;DHT22;20808;48.974;8.452;2022-09-30T07:04:47;10.20;99.90
34572;DHT22;20808;48.974;8.452;2022-09-30T07:07:14;10.10;99.90
34572;DHT22;20808;48.974;8.452;2022-09-30T07:09:41;10.20;99.90
34572;DHT22;20808;48.974;8.452;2022-09-30T07:12:08;10.30;99.90
34572;DHT22;20808;48.974;8.452;2022-09-30T07:14:35;10.30;99.90
34572;DHT22;20808;48.974;8.452;2022-09-30T07:17:04;10.50;99.90
34572;DHT22;20808;48.974;8.452;2022-09-30T07:19:31;10.60;99.90
34572;DHT22;20808;48.974;8.452;2022-09-30T07:21:59;10.70;99.90
34572;DHT22;20808;48.974;8.452;2022-09-30T07:24:47;10.80;99.90
34572;DHT22;20808;48.974;8.452;2022-09-30T07:27:14;10.90;99.90
34572;DHT22;20808;48.974;8.452;2022-09-30T07:29:41;11.00;99.90
34572;DHT22;20808;48.974;8.452;2022-09-30T07:32:11;11.10;99.90
34572;DHT22;20808;48.974;8.452;2022-09-30T07:34:38;11.20;99.90
34572;DHT22;20808;48.974;8.452;2022-09-30T07:37:07;11.50;99.90
34572;DHT22;20808;48.974;8.452;2022-09-30T07:39:34;11.80;99.90
34572;DHT22;20808;48.974;8.452;2022-09-30T07:42:01;12.00;62.70
34572;DHT22;20808;48.974;8.452;2022-09-30T07:44:29;12.30;1.00
34572;DHT22;20808;48.974;8.452;2022-09-30T07:46:55;12.50;1.00
34572;DHT22;20808;48.974;8.452;2022-09-30T07:49:24;12.80;1.00
34572;DHT22;20808;48.974;8.452;2022-09-30T07:51:52;13.20;99.90
34572;DHT22;20808;48.974;8.452;2022-09-30T07:54:23;13.30;99.90
34572;DHT22;20808;48.974;8.452;2022-09-30T07:56:50;13.40;1.00
34572;DHT22;20808;48.974;8.452;2022-09-30T07:59:18;13.50;1.00
34572;DHT22;20808;48.974;8.452;2022-09-30T08:01:45;13.50;99.90
34572;DHT22;20808;48.974;8.452;2022-09-30T08:04:13;13.60;1.00
34572;DHT22;20808;48.974;8.452;2022-09-30T08:06:43;13.50;99.90
34572;DHT22;20808;48.974;8.452;2022-09-30T08:09:11;13.30;1.00
34572;DHT22;20808;48.974;8.452;2022-09-30T08:11:38;13.50;1.00
34572;DHT22;20808;48.974;8.452;2022-09-30T08:14:12;13.90;1.00
34572;DHT22;20808;48.974;8.452;2022-09-30T08:16:39;14.40;1.00
34572;DHT22;20808;48.974;8.452;2022-09-30T08:19:06;15.00;1.00
34572;DHT22;20808;48.974;8.452;2022-09-30T08:21:32;15.50;1.00
34572;DHT22;20808;48.974;8.452;2022-09-30T08:24:02;16.10;1.00
34572;DHT22;20808;48.974;8.452;2022-09-30T08:26:29;16.70;99.90
34572;DHT22;20808;48.974;8.452;2022-09-30T08:28:56;16.80;99.90
34572;DHT22;20808;48.974;8.452;2022-09-30T08:31:23;17.00;99.90
34572;DHT22;20808;48.974;8.452;2022-09-30T08:33:51;17.00;99.90
34572;DHT22;20808;48.974;8.452;2022-09-30T08:36:21;17.30;99.90
34572;DHT22;20808;48.974;8.452;2022-09-30T08:38:49;17.60;99.90
34572;DHT22;20808;48.974;8.452;2022-09-30T08:41:30;18.10;99.90
34572;DHT22;20808;48.974;8.452;2022-09-30T08:44:09;18.10;99.90
34572;DHT22;20808;48.974;8.452;2022-09-30T08:46:45;18.30;99.90
34572;DHT22;20808;48.974;8.452;2022-09-30T08:49:24;18.40;99.90
34572;DHT22;20808;48.974;8.452;2022-09-30T08:51:57;18.30;99.90
34572;DHT22;20808;48.974;8.452;2022-09-30T08:54:30;18.20;98.50
34572;DHT22;20808;48.974;8.452;2022-09-30T08:57:01;18.20;99.90
34572;DHT22;20808;48.974;8.452;2022-09-30T08:59:34;18.20;87.60
34572;DHT22;20808;48.974;8.452;2022-09-30T09:02:14;18.30;77.20
34572;DHT22;20808;48.974;8.452;2022-09-30T09:04:42;18.20;67.80
34572;DHT22;20808;48.974;8.452;2022-09-30T09:07:18;17.70;73.60
34572;DHT22;20808;48.974;8.452;2022-09-30T09:09:58;17.50;91.80
34572;DHT22;20808;48.974;8.452;2022-09-30T09:12:35;17.70;94.40
34572;DHT22;20808;48.974;8.452;2022-09-30T09:15:19;17.90;81.40
34572;DHT22;20808;48.974;8.452;2022-09-30T09:18:01;17.80;77.80
34572;DHT22;20808;48.974;8.452;2022-09-30T09:20:34;17.40;83.70
34572;DHT22;20808;48.974;8.452;2022-09-30T09:23:02;17.00;99.90
34572;DHT22;20808;48.974;8.452;2022-09-30T09:25:31;16.60;99.90
34572;DHT22;20808;48.974;8.452;2022-09-30T09:28:01;16.50;99.90
34572;DHT22;20808;48.974;8.452;2022-09-30T09:30:33;16.50;99.90
34572;DHT22;20808;48.974;8.452;2022-09-30T09:33:14;16.40;99.90
34572;DHT22;20808;48.974;8.452;2022-09-30T09:35:47;16.30;99.90
34572;DHT22;20808;48.974;8.452;2022-09-30T09:38:26;16.60;99.90
34572;DHT22;20808;48.974;8.452;2022-09-30T09:41:18;16.70;99.90
34572;DHT22;20808;48.974;8.452;2022-09-30T09:43:55;16.70;99.90
34572;DHT22;20808;48.974;8.452;2022-09-30T09:46:26;17.10;99.90
34572;DHT22;20808;48.974;8.452;2022-09-30T09:49:26;17.60;99.90
34572;DHT22;20808;48.974;8.452;2022-09-30T09:52:09;18.00;92.40
34572;DHT22;20808;48.974;8.452;2022-09-30T09:54:40;18.20;59.30
34572;DHT22;20808;48.974;8.452;2022-09-30T09:57:07;18.30;49.40
34572;DHT22;20808;48.974;8.452;2022-09-30T09:59:36;18.10;57.00
34572;DHT22;20808;48.974;8.452;2022-09-30T10:02:21;18.40;75.70
34572;DHT22;20808;48.974;8.452;2022-09-30T10:04:49;18.90;43.30
34572;DHT22;20808;48.974;8.452;2022-09-30T10:07:25;19.00;25.80
34572;DHT22;20808;48.974;8.452;2022-09-30T10:10:06;18.80;21.60
34572;DHT22;20808;48.974;8.452;2022-09-30T10:12:33;18.40;27.70
34572;DHT22;20808;48.974;8.452;2022-09-30T10:15:11;18.20;35.30
34572;DHT22;20808;48.974;8.452;2022-09-30T10:17:41;18.30;33.20
34572;DHT22;20808;48.974;8.452;2022-09-30T10:20:20;18.30;27.70
34572;DHT22;20808;48.974;8.452;2022-09-30T10:22:48;18.50;21.10
34572;DHT22;20808;48.974;8.452;2022-09-30T10:25:19;18.70;19.00
34572;DHT22;20808;48.974;8.452;2022-09-30T10:27:52;18.90;18.30
34572;DHT22;20808;48.974;8.452;2022-09-30T10:30:33;19.20;8.50
34572;DHT22;20808;48.974;8.452;2022-09-30T10:33:01;19.40;1.00
34572;DHT22;20808;48.974;8.452;2022-09-30T10:35:29;19.70;1.00
34572;DHT22;20808;48.974;8.452;2022-09-30T10:37:57;20.00;1.00
34572;DHT22;20808;48.974;8.452;2022-09-30T10:40:29;20.60;1.00
34572;DHT22;20808;48.974;8.452;2022-09-30T10:42:56;20.70;1.00
34572;DHT22;20808;48.974;8.452;2022-09-30T10:45:28;19.90;1.00
34572;DHT22;20808;48.974;8.452;2022-09-30T10:47:59;19.90;1.00
34572;DHT22;20808;48.974;8.452;2022-09-30T10:50:28;20.10;1.00
34572;DHT22;20808;48.974;8.452;2022-09-30T10:52:56;21.00;1.00
34572;DHT22;20808;48.974;8.452;2022-09-30T10:55:30;21.70;1.00
34572;DHT22;20808;48.974;8.452;2022-09-30T10:58:21;21.80;1.00
34572;DHT22;20808;48.974;8.452;2022-09-30T11:00:52;22.20;1.00
34572;DHT22;20808;48.974;8.452;2022-09-30T11:03:26;22.20;1.00
34572;DHT22;20808;48.974;8.452;2022-09-30T11:05:56;22.70;1.00
34572;DHT22;20808;48.974;8.452;2022-09-30T11:08:27;23.40;1.00
34572;DHT22;20808;48.974;8.452;2022-09-30T11:10:59;23.20;1.00
34572;DHT22;20808;48.974;8.452;2022-09-30T11:13:36;23.30;1.00
34572;DHT22;20808;48.974;8.452;2022-09-30T11:16:11;23.80;1.00
34572;DHT22;20808;48.974;8.452;2022-09-30T11:18:48;23.70;1.00
34572;DHT22;20808;48.974;8.452;2022-09-30T11:21:19;22.50;1.00
34572;DHT22;20808;48.974;8.452;2022-09-30T11:23:51;23.30;1.00
34572;DHT22;20808;48.974;8.452;2022-09-30T11:26:28;24.10;1.00
34572;DHT22;20808;48.974;8.452;2022-09-30T11:29:22;25.20;1.00
34572;DHT22;20808;48.974;8.452;2022-09-30T11:31:57;26.60;1.00
34572;DHT22;20808;48.974;8.452;2022-09-30T11:34:35;26.50;1.00
34572;DHT22;20808;48.974;8.452;2022-09-30T11:37:10;25.50;1.00
34572;DHT22;20808;48.974;8.452;2022-09-30T11:42:38;23.90;1.00
34572;DHT22;20808;48.974;8.452;2022-09-30T11:45:15;23.60;1.00
34572;DHT22;20808;48.974;8.452;2022-09-30T11:48:16;24.20;1.00
34572;DHT22;20808;48.974;8.452;2022-09-30T11:50:54;24.60;1.00
34572;DHT22;20808;48.974;8.452;2022-09-30T11:53:34;24.40;1.00
34572;DHT22;20808;48.974;8.452;2022-09-30T11:56:11;24.90;1.00
34572;DHT22;20808;48.974;8.452;2022-09-30T11:58:46;24.70;1.00
34572;DHT22;20808;48.974;8.452;2022-09-30T12:01:20;23.80;1.00
34572;DHT22;20808;48.974;8.452;2022-09-30T12:03:55;22.50;1.00
34572;DHT22;20808;48.974;8.452;2022-09-30T12:06:29;21.80;1.00
34572;DHT22;20808;48.974;8.452;2022-09-30T12:09:05;22.50;1.00
34572;DHT22;20808;48.974;8.452;2022-09-30T12:11:39;23.80;1.00
34572;DHT22;20808;48.974;8.452;2022-09-30T12:14:13;25.30;1.00
34572;DHT22;20808;48.974;8.452;2022-09-30T12:16:44;26.70;1.00
34572;DHT22;20808;48.974;8.452;2022-09-30T12:19:14;27.30;1.00
34572;DHT22;20808;48.974;8.452;2022-09-30T12:21:48;27.10;1.00
34572;DHT22;20808;48.974;8.452;2022-09-30T12:24:24;26.80;1.00
34572;DHT22;20808;48.974;8.452;2022-09-30T12:26:54;26.60;1.00
34572;DHT22;20808;48.974;8.452;2022-09-30T12:29:25;27.10;1.00
34572;DHT22;20808;48.974;8.452;2022-09-30T12:35:13;26.30;1.00
34572;DHT22;20808;48.974;8.452;2022-09-30T12:37:58;26.40;1.00
34572;DHT22;20808;48.974;8.452;2022-09-30T12:40:39;27.60;1.00
34572;DHT22;20808;48.974;8.452;2022-09-30T12:43:29;28.10;1.00
34572;DHT22;20808;48.974;8.452;2022-09-30T12:46:12;28.90;1.00
34572;DHT22;20808;48.974;8.452;2022-09-30T12:48:43;29.40;1.00
34572;DHT22;20808;48.974;8.452;2022-09-30T12:51:21;29.20;1.00
34572;DHT22;20808;48.974;8.452;2022-09-30T12:53:55;28.60;1.00
34572;DHT22;20808;48.974;8.452;2022-09-30T12:56:25;27.90;1.00
34572;DHT22;20808;48.974;8.452;2022-09-30T12:58:53;27.80;1.00
34572;DHT22;20808;48.974;8.452;2022-09-30T13:01:24;27.90;1.00
34572;DHT22;20808;48.974;8.452;2022-09-30T13:04:12;27.80;1.00
34572;DHT22;20808;48.974;8.452;2022-09-30T13:07:06;27.90;1.00
34572;DHT22;20808;48.974;8.452;2022-09-30T13:09:36;27.30;1.00
34572;DHT22;20808;48.974;8.452;2022-09-30T13:12:25;25.50;1.00
34572;DHT22;20808;48.974;8.452;2022-09-30T13:18:02;23.10;1.00
34572;DHT22;20808;48.974;8.452;2022-09-30T13:20:51;21.90;1.00
34572;DHT22;20808;48.974;8.452;2022-09-30T13:23:34;21.00;1.00
34572;DHT22;20808;48.974;8.452;2022-09-30T13:26:03;20.00;1.00
34572;DHT22;20808;48.974;8.452;2022-09-30T13:28:37;19.60;1.00
34572;DHT22;20808;48.974;8.452;2022-09-30T13:31:12;19.90;1.00
34572;DHT22;20808;48.974;8.452;2022-09-30T13:33:42;20.40;1.00
34572;DHT22;20808;48.974;8.452;2022-09-30T13:36:28;20.50;1.00
34572;DHT22;20808;48.974;8.452;2022-09-30T13:39:13;20.10;1.00
34572;DHT22;20808;48.974;8.452;2022-09-30T13:41:47;19.70;1.00
34572;DHT22;20808;48.974;8.452;2022-09-30T13:44:20;19.60;1.00
34572;DHT22;20808;48.974;8.452;2022-09-30T13:46:48;19.90;1.00
34572;DHT22;20808;48.974;8.452;2022-09-30T13:49:20;20.20;1.00
34572;DHT22;20808;48.974;8.452;2022-09-30T13:51:48;20.10;1.00
34572;DHT22;20808;48.974;8.452;2022-09-30T13:54:23;20.00;1.00
34572;DHT22;20808;48.974;8.452;2022-09-30T13:56:53;19.70;1.00
34572;DHT22;20808;48.974;8.452;2022-09-30T13:59:27;19.60;1.00
34572;DHT22;20808;48.974;8.452;2022-09-30T14:05:24;19.50;1.00
34572;DHT22;20808;48.974;8.452;2022-09-30T14:08:08;19.30;1.00
34572;DHT22;20808;48.974;8.452;2022-09-30T14:10:48;19.10;1.00
34572;DHT22;20808;48.974;8.452;2022-09-30T14:13:31;19.10;1.00
34572;DHT22;20808;48.974;8.452;2022-09-30T14:16:17;18.70;1.00
34572;DHT22;20808;48.974;8.452;2022-09-30T14:19:04;19.00;1.00
34572;DHT22;20808;48.974;8.452;2022-09-30T14:21:36;19.10;1.00
34572;DHT22;20808;48.974;8.452;2022-09-30T14:24:09;19.40;1.00
34572;DHT22;20808;48.974;8.452;2022-09-30T14:27:16;19.60;1.00
34572;DHT22;20808;48.974;8.452;2022-09-30T14:29:55;19.90;1.00
34572;DHT22;20808;48.974;8.452;2022-09-30T14:32:28;19.40;1.00
34572;DHT22;20808;48.974;8.452;2022-09-30T14:34:56;19.30;1.00
34572;DHT22;20808;48.974;8.452;2022-09-30T14:37:26;19.40;1.00
34572;DHT22;20808;48.974;8.452;2022-09-30T14:39:54;20.40;1.00
34572;DHT22;20808;48.974;8.452;2022-09-30T14:42:26;20.70;1.00
34572;DHT22;20808;48.974;8.452;2022-09-30T14:44:58;21.10;1.00
34572;DHT22;20808;48.974;8.452;2022-09-30T14:47:30;21.30;1.00
34572;DHT22;20808;48.974;8.452;2022-09-30T14:49:59;21.90;1.00
34572;DHT22;20808;48.974;8.452;2022-09-30T14:52:35;21.80;1.00
34572;DHT22;20808;48.974;8.452;2022-09-30T14:55:03;22.10;1.00
34572;DHT22;20808;48.974;8.452;2022-09-30T14:57:30;21.80;1.00
34572;DHT22;20808;48.974;8.452;2022-09-30T15:00:25;21.40;1.00
34572;DHT22;20808;48.974;8.452;2022-09-30T15:02:53;20.80;1.00
34572;DHT22;20808;48.974;8.452;2022-09-30T15:05:21;20.40;1.00
34572;DHT22;20808;48.974;8.452;2022-09-30T15:07:48;20.20;1.00
34572;DHT22;20808;48.974;8.452;2022-09-30T15:10:17;20.10;1.00
34572;DHT22;20808;48.974;8.452;2022-09-30T15:12:45;19.80;1.00
34572;DHT22;20808;48.974;8.452;2022-09-30T15:15:33;19.90;1.00
34572;DHT22;20808;48.974;8.452;2022-09-30T15:18:22;20.10;1.00
34572;DHT22;20808;48.974;8.452;2022-09-30T15:20:51;19.90;1.00
34572;DHT22;20808;48.974;8.452;2022-09-30T15:23:24;19.90;1.00
34572;DHT22;20808;48.974;8.452;2022-09-30T15:25:52;19.60;1.00
34572;DHT22;20808;48.974;8.452;2022-09-30T15:28:19;19.40;1.00
34572;DHT22;20808;48.974;8.452;2022-09-30T15:30:48;19.10;1.00
34572;DHT22;20808;48.974;8.452;2022-09-30T15:33:18;19.10;1.00
34572;DHT22;20808;48.974;8.452;2022-09-30T15:35:47;19.00;1.00
34572;DHT22;20808;48.974;8.452;2022-09-30T15:38:19;18.70;1.00
34572;DHT22;20808;48.974;8.452;2022-09-30T15:40:52;18.50;1.00
34572;DHT22;20808;48.974;8.452;2022-09-30T15:43:39;18.20;1.00
34572;DHT22;20808;48.974;8.452;2022-09-30T15:46:23;18.00;1.00
34572;DHT22;20808;48.974;8.452;2022-09-30T15:48:53;17.90;1.00
34572;DHT22;20808;48.974;8.452;2022-09-30T15:51:25;17.90;1.00
34572;DHT22;20808;48.974;8.452;2022-09-30T15:53:55;17.70;1.00
34572;DHT22;20808;48.974;8.452;2022-09-30T15:56:30;17.50;1.00
34572;DHT22;20808;48.974;8.452;2022-09-30T15:59:00;17.30;1.00
34572;DHT22;20808;48.974;8.452;2022-09-30T16:01:35;16.90;1.00
34572;DHT22;20808;48.974;8.452;2022-09-30T16:04:05;16.80;1.00
34572;DHT22;20808;48.974;8.452;2022-09-30T16:06:44;16.70;1.00
34572;DHT22;20808;48.974;8.452;2022-09-30T16:09:21;16.60;1.00
34572;DHT22;20808;48.974;8.452;2022-09-30T16:11:57;16.50;1.00
34572;DHT22;20808;48.974;8.452;2022-09-30T16:14:27;16.30;1.00
34572;DHT22;20808;48.974;8.452;2022-09-30T16:16:58;16.10;1.00
34572;DHT22;20808;48.974;8.452;2022-09-30T16:19:26;16.00;1.00
34572;DHT22;20808;48.974;8.452;2022-09-30T16:21:54;15.80;1.00
34572;DHT22;20808;48.974;8.452;2022-09-30T16:24:44;15.70;1.00
34572;DHT22;20808;48.974;8.452;2022-09-30T16:27:29;15.60;33.90
34572;DHT22;20808;48.974;8.452;2022-09-30T16:29:59;15.40;99.90
34572;DHT22;20808;48.974;8.452;2022-09-30T16:32:30;15.30;1.00